sensor_id;sensor_type;location;lat;lon;timestamp;temperature;humidity
21823;DHT22;11074;48.596;9.238;2023-07-22T00:00:46;17.10;99.90
21823;DHT22;11074;48.596;9.238;2023-07-22T00:03:12;17.10;99.90
21823;DHT22;11074;48.596;9.238;2023-07-22T00:05:39;17.00;99.90
21823;DHT22;11074;48.596;9.238;2023-07-22T00:08:05;17.00;99.90
21823;DHT22;11074;48.596;9.238;2023-07-22T00:10:31;16.90;99.90
21823;DHT22;11074;48.596;9.238;2023-07-22T00:12:56;16.80;99.90
21823;DHT22;11074;48.596;9.238;2023-07-22T00:15:22;16.80;99.90
21823;DHT22;11074;48.596;9.238;2023-07-22T00:17:49;16.80;99.90
21823;DHT22;11074;48.596;9.238;2023-07-22T00:20:16;16.80;99.90
21823;DHT22;11074;48.596;9.238;2023-07-22T00:22:41;16.70;99.90
21823;DHT22;11074;48.596;9.238;2023-07-22T00:25:09;16.80;99.90
21823;DHT22;11074;48.596;9.238;2023-07-22T00:27:39;16.70;99.90
21823;DHT22;11074;48.596;9.238;2023-07-22T00:30:07;16.60;99.90
21823;DHT22;11074;48.596;9.238;2023-07-22T00:32:33;16.70;99.90
21823;DHT22;11074;48.596;9.238;2023-07-22T00:34:59;16.50;99.90
21823;DHT22;11074;48.596;9.238;2023-07-22T00:37:25;16.50;99.90
21823;DHT22;11074;48.596;9.238;2023-07-22T00:39:51;16.50;99.90
21823;DHT22;11074;48.596;9.238;2023-07-22T00:42:17;16.50;99.90
21823;DHT22;11074;48.596;9.238;2023-07-22T00:44:42;16.40;99.90
21823;DHT22;11074;48.596;9.238;2023-07-22T00:47:08;16.30;99.90
21823;DHT22;11074;48.596;9.238;2023-07-22T00:49:35;16.30;99.90
21823;DHT22;11074;48.596;9.238;2023-07-22T00:52:02;16.30;99.90
21823;DHT22;11074;48.596;9.238;2023-07-22T00:54:28;16.40;99.90
21823;DHT22;11074;48.596;9.238;2023-07-22T00:56:56;16.40;99.90
21823;DHT22;11074;48.596;9.238;2023-07-22T00:59:23;16.40;99.90
21823;DHT22;11074;48.596;9.238;2023-07-22T01:01:49;16.40;99.90
21823;DHT22;11074;48.596;9.238;2023-07-22T01:04:16;16.40;99.90
21823;DHT22;11074;48.596;9.238;2023-07-22T01:06:45;16.40;99.90
21823;DHT22;11074;48.596;9.238;2023-07-22T01:09:12;16.40;99.90
21823;DHT22;11074;48.596;9.238;2023-07-22T01:11:38;16.40;99.90
21823;DHT22;11074;48.596;9.238;2023-07-22T01:14:04;16.30;99.90
21823;DHT22;11074;48.596;9.238;2023-07-22T01:16:30;16.20;99.90
21823;DHT22;11074;48.596;9.238;2023-07-22T01:18:56;16.20;99.90
21823;DHT22;11074;48.596;9.238;2023-07-22T01:21:23;16.10;99.90
21823;DHT22;11074;48.596;9.238;2023-07-22T01:23:50;16.20;99.90
21823;DHT22;11074;48.596;9.238;2023-07-22T01:26:16;16.10;99.90
21823;DHT22;11074;48.596;9.238;2023-07-22T01:28:43;16.10;99.90
21823;DHT22;11074;48.596;9.238;2023-07-22T01:31:09;16.10;99.90
21823;DHT22;11074;48.596;9.238;2023-07-22T01:33:35;16.10;99.90
21823;DHT22;11074;48.596;9.238;2023-07-22T01:36:01;16.10;99.90
21823;DHT22;11074;48.596;9.238;2023-07-22T01:38:27;16.00;99.90
21823;DHT22;11074;48.596;9.238;2023-07-22T01:40:54;16.00;99.90
21823;DHT22;11074;48.596;9.238;2023-07-22T01:43:20;16.00;99.90
21823;DHT22;11074;48.596;9.238;2023-07-22T01:45:46;16.00;99.90
21823;DHT22;11074;48.596;9.238;2023-07-22T01:48:13;16.00;99.90
21823;DHT22;11074;48.596;9.238;2023-07-22T01:50:38;16.00;99.90
21823;DHT22;11074;48.596;9.238;2023-07-22T01:53:04;15.90;99.90
21823;DHT22;11074;48.596;9.238;2023-07-22T01:55:31;15.80;99.90
21823;DHT22;11074;48.596;9.238;2023-07-22T01:57:57;15.80;99.90
21823;DHT22;11074;48.596;9.238;2023-07-22T02:00:25;15.80;99.90
21823;DHT22;11074;48.596;9.238;2023-07-22T02:02:52;15.80;99.90
21823;DHT22;11074;48.596;9.238;2023-07-22T02:05:17;15.90;99.90
21823;DHT22;11074;48.596;9.238;2023-07-22T02:07:43;15.90;99.90
21823;DHT22;11074;48.596;9.238;2023-07-22T02:10:09;15.90;99.90
21823;DHT22;11074;48.596;9.238;2023-07-22T02:12:35;15.80;99.90
21823;DHT22;11074;48.596;9.238;2023-07-22T02:15:01;15.60;99.90
21823;DHT22;11074;48.596;9.238;2023-07-22T02:17:28;15.60;99.90
21823;DHT22;11074;48.596;9.238;2023-07-22T02:19:57;15.70;99.90
21823;DHT22;11074;48.596;9.238;2023-07-22T02:22:22;15.80;99.90
21823;DHT22;11074;48.596;9.238;2023-07-22T02:24:48;15.90;99.90
21823;DHT22;11074;48.596;9.238;2023-07-22T02:27:13;15.80;99.90
21823;DHT22;11074;48.596;9.238;2023-07-22T02:29:39;15.80;99.90
21823;DHT22;11074;48.596;9.238;2023-07-22T02:32:05;15.80;99.90
21823;DHT22;11074;48.596;9.238;2023-07-22T02:34:31;15.80;99.90
21823;DHT22;11074;48.596;9.238;2023-07-22T02:36:57;15.80;99.90
21823;DHT22;11074;48.596;9.238;2023-07-22T02:39:23;15.80;99.90
21823;DHT22;11074;48.596;9.238;2023-07-22T02:41:48;15.80;99.90
21823;DHT22;11074;48.596;9.238;2023-07-22T02:44:14;15.80;99.90
21823;DHT22;11074;48.596;9.238;2023-07-22T02:46:39;15.70;99.90
21823;DHT22;11074;48.596;9.238;2023-07-22T02:49:06;15.70;99.90
21823;DHT22;11074;48.596;9.238;2023-07-22T02:51:32;15.70;99.90
21823;DHT22;11074;48.596;9.238;2023-07-22T02:53:58;15.70;99.90
21823;DHT22;11074;48.596;9.238;2023-07-22T02:56:23;15.70;99.90
21823;DHT22;11074;48.596;9.238;2023-07-22T02:58:50;15.70;99.90
21823;DHT22;11074;48.596;9.238;2023-07-22T03:01:15;15.60;99.90
21823;DHT22;11074;48.596;9.238;2023-07-22T03:03:41;15.50;99.90
21823;DHT22;11074;48.596;9.238;2023-07-22T03:06:07;15.40;99.90
21823;DHT22;11074;48.596;9.238;2023-07-22T03:08:34;15.30;99.90
21823;DHT22;11074;48.596;9.238;2023-07-22T03:11:00;15.40;99.90
21823;DHT22;11074;48.596;9.238;2023-07-22T03:13:26;15.40;99.90
21823;DHT22;11074;48.596;9.238;2023-07-22T03:15:55;15.40;99.90
21823;DHT22;11074;48.596;9.238;2023-07-22T03:18:22;15.50;99.90
21823;DHT22;11074;48.596;9.238;2023-07-22T03:20:48;15.50;99.90
21823;DHT22;11074;48.596;9.238;2023-07-22T03:23:14;15.40;99.90
21823;DHT22;11074;48.596;9.238;2023-07-22T03:25:39;15.40;99.90
21823;DHT22;11074;48.596;9.238;2023-07-22T03:28:06;15.40;99.90
21823;DHT22;11074;48.596;9.238;2023-07-22T03:30:33;15.30;99.90
21823;DHT22;11074;48.596;9.238;2023-07-22T03:32:59;15.30;99.90
21823;DHT22;11074;48.596;9.238;2023-07-22T03:35:26;15.30;99.90
21823;DHT22;11074;48.596;9.238;2023-07-22T03:37:52;15.30;99.90
21823;DHT22;11074;48.596;9.238;2023-07-22T03:40:18;15.20;99.90
21823;DHT22;11074;48.596;9.238;2023-07-22T03:42:52;15.10;99.90
21823;DHT22;11074;48.596;9.238;2023-07-22T03:45:20;15.10;99.90
21823;DHT22;11074;48.596;9.238;2023-07-22T03:47:50;15.00;99.90
21823;DHT22;11074;48.596;9.238;2023-07-22T03:50:18;14.90;99.90
21823;DHT22;11074;48.596;9.238;2023-07-22T03:52:44;14.90;99.90
21823;DHT22;11074;48.596;9.238;2023-07-22T03:55:09;15.00;99.90
21823;DHT22;11074;48.596;9.238;2023-07-22T03:57:36;15.00;99.90
21823;DHT22;11074;48.596;9.238;2023-07-22T04:00:02;15.00;99.90
21823;DHT22;11074;48.596;9.238;2023-07-22T04:02:29;15.10;99.90
21823;DHT22;11074;48.596;9.238;2023-07-22T04:04:55;15.10;99.90
21823;DHT22;11074;48.596;9.238;2023-07-22T04:07:21;15.10;99.90
21823;DHT22;11074;48.596;9.238;2023-07-22T04:09:48;15.10;99.90
21823;DHT22;11074;48.596;9.238;2023-07-22T04:12:14;15.10;99.90
21823;DHT22;11074;48.596;9.238;2023-07-22T04:14:40;15.10;99.90
21823;DHT22;11074;48.596;9.238;2023-07-22T04:17:06;15.20;99.90
21823;DHT22;11074;48.596;9.238;2023-07-22T04:19:32;15.10;99.90
21823;DHT22;11074;48.596;9.238;2023-07-22T04:21:57;15.10;99.90
21823;DHT22;11074;48.596;9.238;2023-07-22T04:24:23;15.00;99.90
21823;DHT22;11074;48.596;9.238;2023-07-22T04:26:50;15.00;99.90
21823;DHT22;11074;48.596;9.238;2023-07-22T04:29:16;14.90;99.90
21823;DHT22;11074;48.596;9.238;2023-07-22T04:31:42;14.90;99.90
21823;DHT22;11074;48.596;9.238;2023-07-22T04:34:08;14.90;99.90
21823;DHT22;11074;48.596;9.238;2023-07-22T04:36:34;14.90;99.90
21823;DHT22;11074;48.596;9.238;2023-07-22T04:39:02;15.00;99.90
21823;DHT22;11074;48.596;9.238;2023-07-22T04:41:30;15.00;99.90
21823;DHT22;11074;48.596;9.238;2023-07-22T04:43:57;15.00;99.90
21823;DHT22;11074;48.596;9.238;2023-07-22T04:46:24;15.00;99.90
21823;DHT22;11074;48.596;9.238;2023-07-22T04:48:54;15.00;99.90
21823;DHT22;11074;48.596;9.238;2023-07-22T04:51:21;14.90;99.90
21823;DHT22;11074;48.596;9.238;2023-07-22T04:53:47;14.90;99.90
21823;DHT22;11074;48.596;9.238;2023-07-22T04:56:12;15.00;99.90
21823;DHT22;11074;48.596;9.238;2023-07-22T04:58:39;15.10;99.90
21823;DHT22;11074;48.596;9.238;2023-07-22T05:01:04;15.20;99.90
21823;DHT22;11074;48.596;9.238;2023-07-22T05:03:30;15.20;99.90
21823;DHT22;11074;48.596;9.238;2023-07-22T05:05:56;15.20;99.90
21823;DHT22;11074;48.596;9.238;2023-07-22T05:08:23;15.30;99.90
21823;DHT22;11074;48.596;9.238;2023-07-22T05:10:49;15.30;99.90
21823;DHT22;11074;48.596;9.238;2023-07-22T05:13:15;15.40;99.90
21823;DHT22;11074;48.596;9.238;2023-07-22T05:15:41;15.40;99.90
21823;DHT22;11074;48.596;9.238;2023-07-22T05:18:07;15.30;99.90
21823;DHT22;11074;48.596;9.238;2023-07-22T05:20:33;15.40;99.90
21823;DHT22;11074;48.596;9.238;2023-07-22T05:22:58;15.30;99.90
21823;DHT22;11074;48.596;9.238;2023-07-22T05:25:24;15.30;99.90
21823;DHT22;11074;48.596;9.238;2023-07-22T05:27:49;15.40;99.90
21823;DHT22;11074;48.596;9.238;2023-07-22T05:30:15;15.40;99.90
21823;DHT22;11074;48.596;9.238;2023-07-22T05:32:41;15.50;99.90
21823;DHT22;11074;48.596;9.238;2023-07-22T05:35:07;15.50;99.90
21823;DHT22;11074;48.596;9.238;2023-07-22T05:37:33;15.50;99.90
21823;DHT22;11074;48.596;9.238;2023-07-22T05:39:59;15.60;99.90
21823;DHT22;11074;48.596;9.238;2023-07-22T05:42:25;15.60;99.90
21823;DHT22;11074;48.596;9.238;2023-07-22T05:44:51;15.60;99.90
21823;DHT22;11074;48.596;9.238;2023-07-22T05:47:16;15.60;99.90
21823;DHT22;11074;48.596;9.238;2023-07-22T05:49:42;15.50;99.90
21823;DHT22;11074;48.596;9.238;2023-07-22T05:52:07;15.60;99.90
21823;DHT22;11074;48.596;9.238;2023-07-22T05:54:33;15.60;99.90
21823;DHT22;11074;48.596;9.238;2023-07-22T05:56:59;15.70;99.90
21823;DHT22;11074;48.596;9.238;2023-07-22T05:59:24;15.70;99.90
21823;DHT22;11074;48.596;9.238;2023-07-22T06:01:50;15.80;99.90
21823;DHT22;11074;48.596;9.238;2023-07-22T06:04:16;15.80;99.90
21823;DHT22;11074;48.596;9.238;2023-07-22T06:06:41;15.90;99.90
21823;DHT22;11074;48.596;9.238;2023-07-22T06:09:07;15.90;99.90
21823;DHT22;11074;48.596;9.238;2023-07-22T06:11:33;15.90;99.90
21823;DHT22;11074;48.596;9.238;2023-07-22T06:13:58;16.00;99.90
21823;DHT22;11074;48.596;9.238;2023-07-22T06:16:24;16.00;99.90
21823;DHT22;11074;48.596;9.238;2023-07-22T06:18:49;16.00;99.90
21823;DHT22;11074;48.596;9.238;2023-07-22T06:21:15;16.10;99.90
21823;DHT22;11074;48.596;9.238;2023-07-22T06:23:41;16.20;99.90
21823;DHT22;11074;48.596;9.238;2023-07-22T06:26:07;16.20;99.90
21823;DHT22;11074;48.596;9.238;2023-07-22T06:28:32;16.30;99.90
21823;DHT22;11074;48.596;9.238;2023-07-22T06:30:58;16.30;99.90
21823;DHT22;11074;48.596;9.238;2023-07-22T06:33:24;16.30;99.90
21823;DHT22;11074;48.596;9.238;2023-07-22T06:35:49;16.30;99.90
21823;DHT22;11074;48.596;9.238;2023-07-22T06:38:15;16.40;99.90
21823;DHT22;11074;48.596;9.238;2023-07-22T06:40:41;16.40;99.90
21823;DHT22;11074;48.596;9.238;2023-07-22T06:43:06;16.50;99.90
21823;DHT22;11074;48.596;9.238;2023-07-22T06:45:32;16.50;99.90
21823;DHT22;11074;48.596;9.238;2023-07-22T06:47:58;16.60;99.90
21823;DHT22;11074;48.596;9.238;2023-07-22T06:50:24;16.60;99.90
21823;DHT22;11074;48.596;9.238;2023-07-22T06:52:50;16.70;99.90
21823;DHT22;11074;48.596;9.238;2023-07-22T06:55:15;16.70;99.90
21823;DHT22;11074;48.596;9.238;2023-07-22T06:57:41;16.80;99.90
21823;DHT22;11074;48.596;9.238;2023-07-22T07:00:07;16.90;99.90
21823;DHT22;11074;48.596;9.238;2023-07-22T07:02:35;16.90;99.90
21823;DHT22;11074;48.596;9.238;2023-07-22T07:05:01;17.00;99.90
21823;DHT22;11074;48.596;9.238;2023-07-22T07:07:27;17.00;99.90
21823;DHT22;11074;48.596;9.238;2023-07-22T07:09:53;17.10;99.90
21823;DHT22;11074;48.596;9.238;2023-07-22T07:12:18;17.10;99.90
21823;DHT22;11074;48.596;9.238;2023-07-22T07:14:44;17.20;99.90
21823;DHT22;11074;48.596;9.238;2023-07-22T07:17:10;17.30;99.90
21823;DHT22;11074;48.596;9.238;2023-07-22T07:19:35;17.30;99.90
21823;DHT22;11074;48.596;9.238;2023-07-22T07:22:01;17.40;99.90
21823;DHT22;11074;48.596;9.238;2023-07-22T07:24:27;17.50;99.90
21823;DHT22;11074;48.596;9.238;2023-07-22T07:26:53;17.50;99.90
21823;DHT22;11074;48.596;9.238;2023-07-22T07:29:19;17.60;99.90
21823;DHT22;11074;48.596;9.238;2023-07-22T07:31:44;17.70;99.90
21823;DHT22;11074;48.596;9.238;2023-07-22T07:34:10;17.60;99.90
21823;DHT22;11074;48.596;9.238;2023-07-22T07:36:36;17.70;99.90
21823;DHT22;11074;48.596;9.238;2023-07-22T07:39:01;17.80;99.90
21823;DHT22;11074;48.596;9.238;2023-07-22T07:41:28;17.90;99.90
21823;DHT22;11074;48.596;9.238;2023-07-22T07:43:54;18.00;99.90
21823;DHT22;11074;48.596;9.238;2023-07-22T07:46:29;18.00;99.90
21823;DHT22;11074;48.596;9.238;2023-07-22T07:48:57;18.10;99.90
21823;DHT22;11074;48.596;9.238;2023-07-22T07:51:28;18.20;99.90
21823;DHT22;11074;48.596;9.238;2023-07-22T07:53:56;18.30;99.90
21823;DHT22;11074;48.596;9.238;2023-07-22T07:56:23;18.30;99.90
21823;DHT22;11074;48.596;9.238;2023-07-22T07:58:50;18.40;99.90
21823;DHT22;11074;48.596;9.238;2023-07-22T08:01:17;18.50;99.90
21823;DHT22;11074;48.596;9.238;2023-07-22T08:03:43;18.60;99.90
21823;DHT22;11074;48.596;9.238;2023-07-22T08:06:10;18.60;99.90
21823;DHT22;11074;48.596;9.238;2023-07-22T08:08:37;18.70;99.90
21823;DHT22;11074;48.596;9.238;2023-07-22T08:11:08;18.70;99.90
21823;DHT22;11074;48.596;9.238;2023-07-22T08:13:36;18.80;99.90
21823;DHT22;11074;48.596;9.238;2023-07-22T08:16:04;18.80;99.90
21823;DHT22;11074;48.596;9.238;2023-07-22T08:18:31;18.90;99.90
21823;DHT22;11074;48.596;9.238;2023-07-22T08:20:58;19.00;99.90
21823;DHT22;11074;48.596;9.238;2023-07-22T08:23:23;19.00;99.90
21823;DHT22;11074;48.596;9.238;2023-07-22T08:25:49;19.10;99.90
21823;DHT22;11074;48.596;9.238;2023-07-22T08:28:16;19.20;99.90
21823;DHT22;11074;48.596;9.238;2023-07-22T08:30:42;19.20;99.90
21823;DHT22;11074;48.596;9.238;2023-07-22T08:33:11;19.30;99.90
21823;DHT22;11074;48.596;9.238;2023-07-22T08:35:38;19.40;99.90
21823;DHT22;11074;48.596;9.238;2023-07-22T08:38:05;19.40;99.90
21823;DHT22;11074;48.596;9.238;2023-07-22T08:40:41;19.50;99.90
21823;DHT22;11074;48.596;9.238;2023-07-22T08:43:09;19.50;99.90
21823;DHT22;11074;48.596;9.238;2023-07-22T08:45:37;19.60;99.90
21823;DHT22;11074;48.596;9.238;2023-07-22T08:48:08;19.70;99.90
21823;DHT22;11074;48.596;9.238;2023-07-22T08:53:15;19.90;99.90
21823;DHT22;11074;48.596;9.238;2023-07-22T08:55:42;19.90;99.90
21823;DHT22;11074;48.596;9.238;2023-07-22T08:58:09;19.90;99.90
21823;DHT22;11074;48.596;9.238;2023-07-22T09:00:35;20.00;99.90
21823;DHT22;11074;48.596;9.238;2023-07-22T09:03:02;20.10;99.90
21823;DHT22;11074;48.596;9.238;2023-07-22T09:05:28;20.20;99.90
21823;DHT22;11074;48.596;9.238;2023-07-22T09:07:55;20.30;99.90
21823;DHT22;11074;48.596;9.238;2023-07-22T09:10:23;20.50;99.90
21823;DHT22;11074;48.596;9.238;2023-07-22T09:12:52;20.70;99.90
21823;DHT22;11074;48.596;9.238;2023-07-22T09:15:18;20.90;99.90
21823;DHT22;11074;48.596;9.238;2023-07-22T09:17:45;21.00;99.90
21823;DHT22;11074;48.596;9.238;2023-07-22T09:20:13;21.10;99.90
21823;DHT22;11074;48.596;9.238;2023-07-22T09:22:50;21.20;99.90
21823;DHT22;11074;48.596;9.238;2023-07-22T09:25:21;21.10;99.90
21823;DHT22;11074;48.596;9.238;2023-07-22T09:27:51;21.20;99.90
21823;DHT22;11074;48.596;9.238;2023-07-22T09:32:53;21.10;99.90
21823;DHT22;11074;48.596;9.238;2023-07-22T09:35:21;21.10;99.90
21823;DHT22;11074;48.596;9.238;2023-07-22T09:37:47;21.00;99.90
21823;DHT22;11074;48.596;9.238;2023-07-22T09:40:20;21.00;99.90
21823;DHT22;11074;48.596;9.238;2023-07-22T09:42:52;21.10;99.90
21823;DHT22;11074;48.596;9.238;2023-07-22T09:45:21;21.20;99.90
21823;DHT22;11074;48.596;9.238;2023-07-22T09:47:49;21.10;99.90
21823;DHT22;11074;48.596;9.238;2023-07-22T09:50:18;21.20;99.90
21823;DHT22;11074;48.596;9.238;2023-07-22T09:52:47;21.20;99.90
21823;DHT22;11074;48.596;9.238;2023-07-22T09:55:17;21.30;99.90
21823;DHT22;11074;48.596;9.238;2023-07-22T09:57:57;21.40;99.90
21823;DHT22;11074;48.596;9.238;2023-07-22T10:00:29;21.50;99.90
21823;DHT22;11074;48.596;9.238;2023-07-22T10:03:00;21.60;99.90
21823;DHT22;11074;48.596;9.238;2023-07-22T10:05:28;21.70;99.90
21823;DHT22;11074;48.596;9.238;2023-07-22T10:07:58;21.70;99.90
21823;DHT22;11074;48.596;9.238;2023-07-22T10:10:30;21.70;99.90
21823;DHT22;11074;48.596;9.238;2023-07-22T10:12:58;21.70;99.90
21823;DHT22;11074;48.596;9.238;2023-07-22T10:15:29;21.80;99.90
21823;DHT22;11074;48.596;9.238;2023-07-22T10:17:57;22.00;99.90
21823;DHT22;11074;48.596;9.238;2023-07-22T10:20:24;22.10;99.90
21823;DHT22;11074;48.596;9.238;2023-07-22T10:22:50;22.10;99.90
21823;DHT22;11074;48.596;9.238;2023-07-22T10:25:18;22.00;99.90
21823;DHT22;11074;48.596;9.238;2023-07-22T10:27:46;21.90;99.90
21823;DHT22;11074;48.596;9.238;2023-07-22T10:30:15;21.90;99.90
21823;DHT22;11074;48.596;9.238;2023-07-22T10:32:44;22.00;99.90
21823;DHT22;11074;48.596;9.238;2023-07-22T10:38:12;22.00;99.90
21823;DHT22;11074;48.596;9.238;2023-07-22T10:43:16;21.90;99.90
21823;DHT22;11074;48.596;9.238;2023-07-22T10:45:50;22.00;99.90
21823;DHT22;11074;48.596;9.238;2023-07-22T10:48:19;22.00;99.90
21823;DHT22;11074;48.596;9.238;2023-07-22T10:51:09;22.20;99.90
21823;DHT22;11074;48.596;9.238;2023-07-22T10:53:55;22.30;99.90
21823;DHT22;11074;48.596;9.238;2023-07-22T10:56:21;22.40;99.90
21823;DHT22;11074;48.596;9.238;2023-07-22T11:01:22;22.60;99.90
21823;DHT22;11074;48.596;9.238;2023-07-22T11:04:06;22.70;99.90
21823;DHT22;11074;48.596;9.238;2023-07-22T11:07:03;22.80;99.90
21823;DHT22;11074;48.596;9.238;2023-07-22T11:12:11;22.90;99.90
21823;DHT22;11074;48.596;9.238;2023-07-22T11:14:50;23.00;99.90
21823;DHT22;11074;48.596;9.238;2023-07-22T11:17:29;23.10;99.90
21823;DHT22;11074;48.596;9.238;2023-07-22T11:19:59;23.30;99.90
21823;DHT22;11074;48.596;9.238;2023-07-22T11:22:26;23.40;99.90
21823;DHT22;11074;48.596;9.238;2023-07-22T11:24:54;23.70;99.90
21823;DHT22;11074;48.596;9.238;2023-07-22T11:27:20;23.70;99.90
21823;DHT22;11074;48.596;9.238;2023-07-22T11:29:48;23.80;99.90
21823;DHT22;11074;48.596;9.238;2023-07-22T11:32:18;23.90;99.90
21823;DHT22;11074;48.596;9.238;2023-07-22T11:34:51;23.80;99.90
21823;DHT22;11074;48.596;9.238;2023-07-22T11:37:18;23.80;99.90
21823;DHT22;11074;48.596;9.238;2023-07-22T11:39:44;24.00;99.90
21823;DHT22;11074;48.596;9.238;2023-07-22T11:42:10;24.10;99.90
21823;DHT22;11074;48.596;9.238;2023-07-22T11:44:36;24.30;99.90
21823;DHT22;11074;48.596;9.238;2023-07-22T11:47:07;24.20;99.90
21823;DHT22;11074;48.596;9.238;2023-07-22T11:49:39;24.10;99.90
21823;DHT22;11074;48.596;9.238;2023-07-22T11:52:16;23.90;99.90
21823;DHT22;11074;48.596;9.238;2023-07-22T11:54:44;23.90;99.90
21823;DHT22;11074;48.596;9.238;2023-07-22T11:57:15;24.20;99.90
21823;DHT22;11074;48.596;9.238;2023-07-22T11:59:56;24.70;99.90
21823;DHT22;11074;48.596;9.238;2023-07-22T12:02:26;24.70;99.90
21823;DHT22;11074;48.596;9.238;2023-07-22T12:05:01;24.40;99.90
21823;DHT22;11074;48.596;9.238;2023-07-22T12:07:30;24.70;99.90
21823;DHT22;11074;48.596;9.238;2023-07-22T12:10:03;24.50;99.90
21823;DHT22;11074;48.596;9.238;2023-07-22T12:12:34;24.80;99.90
21823;DHT22;11074;48.596;9.238;2023-07-22T12:15:11;25.00;99.90
21823;DHT22;11074;48.596;9.238;2023-07-22T12:17:58;25.00;99.90
21823;DHT22;11074;48.596;9.238;2023-07-22T12:20:27;24.90;99.90
21823;DHT22;11074;48.596;9.238;2023-07-22T12:22:56;25.10;99.90
21823;DHT22;11074;48.596;9.238;2023-07-22T12:25:22;25.40;99.90
21823;DHT22;11074;48.596;9.238;2023-07-22T12:27:48;25.60;99.90
21823;DHT22;11074;48.596;9.238;2023-07-22T12:30:15;25.80;99.90
21823;DHT22;11074;48.596;9.238;2023-07-22T12:32:41;26.10;99.90
21823;DHT22;11074;48.596;9.238;2023-07-22T12:35:07;26.20;99.90
21823;DHT22;11074;48.596;9.238;2023-07-22T12:37:34;26.50;99.90
21823;DHT22;11074;48.596;9.238;2023-07-22T12:40:00;26.60;99.90
21823;DHT22;11074;48.596;9.238;2023-07-22T12:42:26;26.40;99.90
21823;DHT22;11074;48.596;9.238;2023-07-22T12:44:51;26.10;99.90
21823;DHT22;11074;48.596;9.238;2023-07-22T12:47:17;25.70;99.90
21823;DHT22;11074;48.596;9.238;2023-07-22T12:49:43;25.80;99.90
21823;DHT22;11074;48.596;9.238;2023-07-22T12:52:09;25.90;99.90
21823;DHT22;11074;48.596;9.238;2023-07-22T12:54:35;26.00;99.90
21823;DHT22;11074;48.596;9.238;2023-07-22T12:57:02;26.10;99.90
21823;DHT22;11074;48.596;9.238;2023-07-22T12:59:28;26.40;99.90
21823;DHT22;11074;48.596;9.238;2023-07-22T13:01:53;26.60;99.90
21823;DHT22;11074;48.596;9.238;2023-07-22T13:04:19;26.90;99.90
21823;DHT22;11074;48.596;9.238;2023-07-22T13:06:45;27.00;99.90
21823;DHT22;11074;48.596;9.238;2023-07-22T13:09:11;26.80;99.90
21823;DHT22;11074;48.596;9.238;2023-07-22T13:11:36;26.50;99.90
21823;DHT22;11074;48.596;9.238;2023-07-22T13:14:02;26.10;99.90
21823;DHT22;11074;48.596;9.238;2023-07-22T13:16:28;25.70;99.90
21823;DHT22;11074;48.596;9.238;2023-07-22T13:18:54;25.70;99.90
21823;DHT22;11074;48.596;9.238;2023-07-22T13:21:20;26.10;99.90
21823;DHT22;11074;48.596;9.238;2023-07-22T13:23:46;26.50;99.90
21823;DHT22;11074;48.596;9.238;2023-07-22T13:26:11;26.60;99.90
21823;DHT22;11074;48.596;9.238;2023-07-22T13:28:37;26.70;99.90
21823;DHT22;11074;48.596;9.238;2023-07-22T13:31:02;26.80;99.90
21823;DHT22;11074;48.596;9.238;2023-07-22T13:33:28;27.00;99.90
21823;DHT22;11074;48.596;9.238;2023-07-22T13:35:53;27.00;99.90
21823;DHT22;11074;48.596;9.238;2023-07-22T13:38:19;27.00;99.90
21823;DHT22;11074;48.596;9.238;2023-07-22T13:40:46;26.90;99.90
21823;DHT22;11074;48.596;9.238;2023-07-22T13:43:12;26.60;99.90
21823;DHT22;11074;48.596;9.238;2023-07-22T13:45:37;26.60;99.90
21823;DHT22;11074;48.596;9.238;2023-07-22T13:48:03;26.70;99.90
21823;DHT22;11074;48.596;9.238;2023-07-22T13:50:29;26.90;99.90
21823;DHT22;11074;48.596;9.238;2023-07-22T13:52:56;27.10;99.90
21823;DHT22;11074;48.596;9.238;2023-07-22T13:55:21;27.10;99.20
21823;DHT22;11074;48.596;9.238;2023-07-22T13:57:47;27.30;99.80
21823;DHT22;11074;48.596;9.238;2023-07-22T14:00:13;27.30;99.20
21823;DHT22;11074;48.596;9.238;2023-07-22T14:02:39;27.40;99.90
21823;DHT22;11074;48.596;9.238;2023-07-22T14:05:06;27.40;99.90
21823;DHT22;11074;48.596;9.238;2023-07-22T14:07:32;27.40;99.50
21823;DHT22;11074;48.596;9.238;2023-07-22T14:09:58;27.30;99.40
21823;DHT22;11074;48.596;9.238;2023-07-22T14:12:24;27.30;99.90
21823;DHT22;11074;48.596;9.238;2023-07-22T14:14:49;27.40;99.50
21823;DHT22;11074;48.596;9.238;2023-07-22T14:17:15;27.40;99.40
21823;DHT22;11074;48.596;9.238;2023-07-22T14:19:41;27.20;98.80
21823;DHT22;11074;48.596;9.238;2023-07-22T14:22:07;27.10;99.40
21823;DHT22;11074;48.596;9.238;2023-07-22T14:24:33;27.00;99.30
21823;DHT22;11074;48.596;9.238;2023-07-22T14:26:59;26.80;98.50
21823;DHT22;11074;48.596;9.238;2023-07-22T14:29:25;26.80;99.10
21823;DHT22;11074;48.596;9.238;2023-07-22T14:31:51;26.80;98.90
21823;DHT22;11074;48.596;9.238;2023-07-22T14:34:17;26.90;98.90
21823;DHT22;11074;48.596;9.238;2023-07-22T14:36:43;27.00;98.70
21823;DHT22;11074;48.596;9.238;2023-07-22T14:39:09;27.00;98.20
21823;DHT22;11074;48.596;9.238;2023-07-22T14:41:35;27.20;97.40
21823;DHT22;11074;48.596;9.238;2023-07-22T14:44:00;27.30;97.20
21823;DHT22;11074;48.596;9.238;2023-07-22T14:46:26;27.40;98.90
21823;DHT22;11074;48.596;9.238;2023-07-22T14:48:52;27.30;98.30
21823;DHT22;11074;48.596;9.238;2023-07-22T14:51:18;27.40;98.10
21823;DHT22;11074;48.596;9.238;2023-07-22T14:53:43;27.50;97.70
21823;DHT22;11074;48.596;9.238;2023-07-22T14:56:09;27.60;97.70
21823;DHT22;11074;48.596;9.238;2023-07-22T14:58:35;27.70;97.80
21823;DHT22;11074;48.596;9.238;2023-07-22T15:01:01;27.50;98.10
21823;DHT22;11074;48.596;9.238;2023-07-22T15:03:26;27.30;97.60
21823;DHT22;11074;48.596;9.238;2023-07-22T15:05:52;27.20;97.90
21823;DHT22;11074;48.596;9.238;2023-07-22T15:08:18;27.00;98.10
21823;DHT22;11074;48.596;9.238;2023-07-22T15:10:43;26.90;98.30
21823;DHT22;11074;48.596;9.238;2023-07-22T15:13:09;26.80;97.80
21823;DHT22;11074;48.596;9.238;2023-07-22T15:15:35;26.70;97.50
21823;DHT22;11074;48.596;9.238;2023-07-22T15:18:00;26.60;97.20
21823;DHT22;11074;48.596;9.238;2023-07-22T15:20:26;26.60;97.90
21823;DHT22;11074;48.596;9.238;2023-07-22T15:22:52;26.60;97.40
21823;DHT22;11074;48.596;9.238;2023-07-22T15:25:18;26.70;96.50
21823;DHT22;11074;48.596;9.238;2023-07-22T15:27:43;26.60;97.80
21823;DHT22;11074;48.596;9.238;2023-07-22T15:30:10;26.50;97.90
21823;DHT22;11074;48.596;9.238;2023-07-22T15:32:36;26.50;96.70
21823;DHT22;11074;48.596;9.238;2023-07-22T15:35:01;26.40;97.10
21823;DHT22;11074;48.596;9.238;2023-07-22T15:37:27;26.30;97.30
21823;DHT22;11074;48.596;9.238;2023-07-22T15:39:53;26.30;97.90
21823;DHT22;11074;48.596;9.238;2023-07-22T15:42:19;26.20;97.80
21823;DHT22;11074;48.596;9.238;2023-07-22T15:44:44;26.20;97.60